createdAt,value
2018-06-20T00:01:12.331Z,100174.66
2018-06-20T00:03:40.917Z,100168.52
2018-06-20T00:06:09.590Z,100167.41
2018-06-20T00:08:43.339Z,100166.41
2018-06-20T00:11:11.982Z,100159.80
2018-06-20T00:13:40.569Z,100160.49
2018-06-20T00:16:09.161Z,100161.18
2018-06-20T00:18:38.529Z,100160.48
2018-06-20T00:21:07.095Z,100159.88
2018-06-20T00:23:35.695Z,100158.73
2018-06-20T00:26:04.275Z,100160.26
2018-06-20T00:28:32.845Z,100155.66
2018-06-20T00:31:01.430Z,100153.03
2018-06-20T00:33:30.109Z,100159.94
2018-06-20T00:35:58.696Z,100159.45
2018-06-20T00:38:27.330Z,100160.36
2018-06-20T00:40:55.950Z,100165.09
2018-06-20T00:43:24.542Z,100162.23
2018-06-20T00:45:53.161Z,100157.31
2018-06-20T00:48:21.870Z,100155.94
2018-06-20T00:50:50.481Z,100158.63
2018-06-20T00:53:19.090Z,100157.41
2018-06-20T00:55:58.601Z,100151.13
2018-06-20T00:58:27.219Z,100151.08
2018-06-20T01:00:55.845Z,100143.71
2018-06-20T01:08:44.837Z,100141.58
2018-06-20T01:11:13.720Z,100143.34
2018-06-20T01:13:42.346Z,100139.02
2018-06-20T01:16:11.273Z,100137.63
2018-06-20T01:18:39.882Z,100133.48
2018-06-20T01:21:08.562Z,100140.99
2018-06-20T01:23:37.190Z,100136.05
2018-06-20T01:26:05.854Z,100139.02
2018-06-20T01:28:34.509Z,100139.18
2018-06-20T01:31:03.182Z,100145.77
2018-06-20T01:33:31.818Z,100141.52
2018-06-20T01:36:00.414Z,100139.65
2018-06-20T01:38:29.110Z,100140.84
2018-06-20T01:40:57.766Z,100144.66
2018-06-20T01:43:26.477Z,100147.06
2018-06-20T01:45:55.158Z,100141.38
2018-06-20T01:48:23.823Z,100142.88
2018-06-20T01:50:55.747Z,100144.12
2018-06-20T01:53:24.368Z,100140.67
2018-06-20T01:55:53.124Z,100146.06
2018-06-20T01:58:22.391Z,100146.54
2018-06-20T02:00:51.091Z,100150.62
2018-06-20T02:03:19.719Z,100153.77
2018-06-20T02:05:49.074Z,100159.31
2018-06-20T02:08:17.717Z,100163.70
2018-06-20T02:10:46.366Z,100165.70
2018-06-20T02:13:14.986Z,100163.55
2018-06-20T02:15:43.600Z,100165.44
2018-06-20T02:18:12.899Z,100160.53
2018-06-20T02:20:41.614Z,100166.28
2018-06-20T02:23:10.311Z,100173.76
2018-06-20T02:25:38.937Z,100165.38
2018-06-20T02:28:07.646Z,100170.13
2018-06-20T02:30:36.307Z,100168.24
2018-06-20T02:33:05.130Z,100167.97
2018-06-20T02:35:33.820Z,100163.05
2018-06-20T02:38:02.461Z,100164.96
2018-06-20T02:40:31.236Z,100167.70
2018-06-20T02:42:59.922Z,100158.50
2018-06-20T02:45:28.633Z,100159.55
2018-06-20T02:47:58.275Z,100156.05
2018-06-20T02:50:26.953Z,100167.14
2018-06-20T02:52:55.616Z,100164.22
2018-06-20T02:55:24.446Z,100165.47
2018-06-20T02:57:53.298Z,100160.47
2018-06-20T03:00:22.574Z,100162.39
2018-06-20T03:02:51.274Z,100165.91
2018-06-20T03:05:19.953Z,100163.18
2018-06-20T03:07:48.591Z,100166.81
2018-06-20T03:10:17.239Z,100172.28
2018-06-20T03:12:45.884Z,100168.75
2018-06-20T03:15:14.550Z,100168.09
2018-06-20T03:17:43.198Z,100163.08
2018-06-20T03:20:12.403Z,100165.30
2018-06-20T03:22:41.031Z,100176.02
2018-06-20T03:25:09.782Z,100175.63
2018-06-20T03:27:38.515Z,100174.51
2018-06-20T03:30:07.222Z,100173.08
2018-06-20T03:32:35.870Z,100179.57
2018-06-20T03:35:04.534Z,100178.59
2018-06-20T03:37:33.143Z,100181.19
2018-06-20T03:40:01.821Z,100166.58
2018-06-20T03:42:30.470Z,100163.05
2018-06-20T03:44:59.119Z,100166.17
2018-06-20T03:47:27.771Z,100162.73
2018-06-20T03:49:56.431Z,100165.23
2018-06-20T03:52:25.078Z,100169.13
2018-06-20T03:54:54.034Z,100172.80
2018-06-20T03:57:22.690Z,100173.37
2018-06-20T03:59:51.347Z,100165.92
2018-06-20T04:02:23.552Z,100171.92
2018-06-20T04:04:52.794Z,100171.30
2018-06-20T04:07:21.386Z,100170.79
2018-06-20T04:09:50.219Z,100165.16
2018-06-20T04:12:18.853Z,100175.33
2018-06-20T04:14:47.479Z,100180.41
2018-06-20T04:17:17.039Z,100173.77
2018-06-20T04:19:45.786Z,100176.22
2018-06-20T04:22:14.946Z,100172.68
2018-06-20T04:24:44.138Z,100177.11
2018-06-20T04:27:12.852Z,100175.12
2018-06-20T04:29:41.544Z,100175.72
2018-06-20T04:32:10.174Z,100170.81
2018-06-20T04:34:40.666Z,100176.72
2018-06-20T04:37:09.279Z,100176.10
2018-06-20T04:39:38.791Z,100176.44
2018-06-20T04:42:08.368Z,100171.47
2018-06-20T04:44:37.124Z,100179.30
2018-06-20T04:47:05.723Z,100170.91
2018-06-20T04:49:34.403Z,100175.60
2018-06-20T04:52:03.021Z,100179.94
2018-06-20T04:54:31.629Z,100177.04
2018-06-20T04:57:00.242Z,100175.31
2018-06-20T04:59:28.909Z,100183.36
2018-06-20T05:01:57.519Z,100182.89
2018-06-20T05:04:26.167Z,100183.80
2018-06-20T05:06:54.773Z,100183.35
2018-06-20T05:09:23.366Z,100183.75
2018-06-20T05:11:52.015Z,100181.03
2018-06-20T05:14:21.377Z,100182.45
2018-06-20T05:16:50.001Z,100178.41
2018-06-20T05:19:18.611Z,100183.09
2018-06-20T05:21:47.279Z,100182.38
2018-06-20T05:24:15.879Z,100187.77
2018-06-20T05:26:44.527Z,100185.61
2018-06-20T05:29:13.196Z,100183.39
2018-06-20T05:31:41.810Z,100185.50
2018-06-20T05:34:11.377Z,100187.84
2018-06-20T05:36:40.005Z,100187.66
2018-06-20T05:39:10.398Z,100186.91
2018-06-20T05:41:39.071Z,100188.50
2018-06-20T05:44:08.214Z,100190.38
2018-06-20T05:46:36.907Z,100193.80
2018-06-20T05:49:05.753Z,100190.94
2018-06-20T05:51:34.402Z,100188.70
2018-06-20T05:54:03.069Z,100192.42
2018-06-20T05:56:31.693Z,100193.77
2018-06-20T05:59:00.306Z,100199.38
2018-06-20T06:01:28.936Z,100202.38
2018-06-20T06:06:31.328Z,100193.77
2018-06-20T06:08:59.980Z,100195.27
2018-06-20T06:11:28.598Z,100187.50
2018-06-20T06:13:57.302Z,100193.03
2018-06-20T06:16:25.935Z,100196.03
2018-06-20T06:18:54.968Z,100187.00
2018-06-20T06:21:23.575Z,100189.04
2018-06-20T06:23:52.236Z,100184.91
2018-06-20T06:26:20.858Z,100198.36
2018-06-20T06:28:49.486Z,100189.30
2018-06-20T06:31:18.111Z,100186.23
2018-06-20T06:33:46.736Z,100184.34
2018-06-20T06:36:15.409Z,100188.54
2018-06-20T06:38:44.062Z,100191.97
2018-06-20T06:41:12.738Z,100186.82
2018-06-20T06:43:41.414Z,100191.31
2018-06-20T06:46:10.113Z,100189.93
2018-06-20T06:48:38.787Z,100194.36
2018-06-20T06:51:07.430Z,100185.81
2018-06-20T06:53:36.071Z,100187.73
2018-06-20T06:56:04.827Z,100189.97
2018-06-20T06:58:33.717Z,100184.73
2018-06-20T07:01:02.350Z,100190.23
2018-06-20T07:03:31.626Z,100182.12
2018-06-20T07:06:00.303Z,100173.27
2018-06-20T07:08:28.955Z,100185.19
2018-06-20T07:10:57.622Z,100181.92
2018-06-20T07:13:26.329Z,100184.91
2018-06-20T07:15:55.102Z,100181.52
2018-06-20T07:18:23.734Z,100178.70
2018-06-20T07:20:52.425Z,100189.84
2018-06-20T07:23:21.730Z,100176.66
2018-06-20T07:25:50.374Z,100180.94
2018-06-20T07:28:19.031Z,100181.64
2018-06-20T07:30:47.708Z,100180.38
2018-06-20T07:33:16.364Z,100176.17
2018-06-20T07:35:45.049Z,100175.97
2018-06-20T07:38:13.768Z,100179.27
2018-06-20T07:40:42.467Z,100175.50
2018-06-20T07:43:11.170Z,100170.41
2018-06-20T07:45:40.583Z,100169.91
2018-06-20T07:48:09.267Z,100173.99
2018-06-20T07:50:37.987Z,100173.41
2018-06-20T07:53:06.630Z,100175.25
2018-06-20T07:55:35.297Z,100168.45
2018-06-20T07:58:04.003Z,100168.64
2018-06-20T08:00:37.975Z,100167.72
2018-06-20T08:03:20.492Z,100160.34
2018-06-20T08:05:54.519Z,100161.26
2018-06-20T08:08:28.138Z,100167.72
2018-06-20T08:11:01.811Z,100159.61
2018-06-20T08:13:35.535Z,100164.86
2018-06-20T08:16:09.326Z,100163.88
2018-06-20T08:18:43.050Z,100157.58
2018-06-20T08:21:11.746Z,100152.83
2018-06-20T08:23:40.411Z,100152.41
2018-06-20T08:26:09.085Z,100159.47
2018-06-20T08:28:37.775Z,100150.02
2018-06-20T08:31:06.414Z,100148.86
2018-06-20T08:33:35.056Z,100149.48
2018-06-20T08:36:03.723Z,100146.83
2018-06-20T08:38:32.352Z,100148.02
2018-06-20T08:41:00.998Z,100148.83
2018-06-20T08:43:29.677Z,100140.86
2018-06-20T08:45:58.311Z,100143.61
2018-06-20T08:48:26.915Z,100145.98
2018-06-20T08:50:55.581Z,100145.36
2018-06-20T08:53:24.209Z,100141.47
2018-06-20T08:55:52.871Z,100140.40
2018-06-20T08:58:21.518Z,100134.52
2018-06-20T09:01:02.913Z,100129.49
2018-06-20T09:03:31.599Z,100126.41
2018-06-20T09:06:05.357Z,100123.45
2018-06-20T09:08:39.275Z,100127.05
2018-06-20T09:11:12.958Z,100121.92
2018-06-20T09:13:45.693Z,100123.03
2018-06-20T09:16:19.637Z,100116.96
2018-06-20T09:18:53.427Z,100118.42
2018-06-20T09:21:22.088Z,100122.14
2018-06-20T09:23:50.714Z,100112.45
2018-06-20T09:26:19.339Z,100122.27
2018-06-20T09:28:47.994Z,100116.90
2018-06-20T09:31:16.609Z,100114.27
2018-06-20T09:33:45.295Z,100115.59
2018-06-20T09:36:13.960Z,100114.06
2018-06-20T09:38:42.669Z,100111.63
2018-06-20T09:41:11.295Z,100112.24
2018-06-20T09:43:39.951Z,100105.02
2018-06-20T09:46:08.637Z,100105.04
2018-06-20T09:48:37.244Z,100101.67
2018-06-20T09:51:05.970Z,100107.62
2018-06-20T09:53:34.602Z,100102.84
2018-06-20T09:56:03.275Z,100099.72
2018-06-20T09:58:32.010Z,100097.92
2018-06-20T10:01:05.845Z,100102.61
2018-06-20T10:03:39.551Z,100100.56
2018-06-20T10:06:13.379Z,100100.09
2018-06-20T10:08:47.396Z,100092.75
2018-06-20T10:11:21.144Z,100099.58
2018-06-20T10:13:51.457Z,100092.59
2018-06-20T10:16:25.427Z,100089.92
2018-06-20T10:18:54.035Z,100088.29
2018-06-20T10:21:22.741Z,100071.37
2018-06-20T10:23:51.471Z,100079.28
2018-06-20T10:26:20.114Z,100079.98
2018-06-20T10:28:48.803Z,100077.25
2018-06-20T10:31:17.474Z,100076.02
2018-06-20T10:33:46.175Z,100068.73
2018-06-20T10:36:14.859Z,100075.59
2018-06-20T10:38:43.564Z,100078.33
2018-06-20T10:41:12.238Z,100070.47
2018-06-20T10:43:48.024Z,100069.10
2018-06-20T10:46:22.138Z,100071.24
2018-06-20T10:48:51.334Z,100062.94
2018-06-20T10:51:20.065Z,100066.03
2018-06-20T10:53:48.765Z,100062.15
2018-06-20T10:56:23.223Z,100058.45
2018-06-20T10:58:56.935Z,100060.81
2018-06-20T11:01:30.638Z,100057.05
2018-06-20T11:04:04.602Z,100050.43
2018-06-20T11:06:38.295Z,100050.84
2018-06-20T11:11:19.272Z,100047.28
2018-06-20T11:13:48.087Z,100043.33
2018-06-20T11:16:16.766Z,100031.14
2018-06-20T11:18:48.778Z,100026.38
2018-06-20T11:21:17.371Z,100017.44
2018-06-20T11:23:46.001Z,100020.37
2018-06-20T11:26:14.694Z,100012.77
2018-06-20T11:28:43.340Z,100006.83
2018-06-20T11:31:11.990Z,100014.58
2018-06-20T11:33:41.266Z,100012.64
2018-06-20T11:36:09.908Z,100008.69
2018-06-20T11:38:38.534Z,99999.55
2018-06-20T11:41:07.218Z,99997.96
2018-06-20T11:43:35.907Z,99987.25
2018-06-20T11:46:09.591Z,99987.09
2018-06-20T11:48:38.190Z,99981.05
2018-06-20T11:51:07.254Z,99985.23
2018-06-20T11:53:36.763Z,99976.56
2018-06-20T11:56:05.410Z,99980.92
2018-06-20T11:58:39.119Z,99975.66
2018-06-20T12:01:12.769Z,99976.69
2018-06-20T12:03:46.479Z,99972.88
2018-06-20T12:06:20.260Z,99971.04
2018-06-20T12:08:54.091Z,99967.00
2018-06-20T12:11:27.923Z,99973.11
2018-06-20T12:14:01.640Z,99965.49
2018-06-20T12:16:30.238Z,99968.09
2018-06-20T12:19:03.990Z,99959.94
2018-06-20T12:21:37.741Z,99958.88
2018-06-20T12:24:11.563Z,99957.30
2018-06-20T12:26:45.261Z,99953.59
2018-06-20T12:29:19.180Z,99947.94
2018-06-20T12:31:52.937Z,99944.34
2018-06-20T12:34:26.745Z,99941.06
2018-06-20T12:37:00.522Z,99936.94
2018-06-20T12:39:28.391Z,99930.80
2018-06-20T12:42:02.142Z,99930.28
2018-06-20T12:44:35.798Z,99920.25
2018-06-20T12:48:10.732Z,99921.11
2018-06-20T12:50:40.003Z,99921.24
2018-06-20T12:53:08.659Z,99921.06
2018-06-20T12:55:37.368Z,99916.02
2018-06-20T12:58:06.149Z,99914.79
2018-06-20T13:00:34.799Z,99912.19
2018-06-20T13:03:03.463Z,99909.20
2018-06-20T13:05:32.376Z,99909.62
2018-06-20T13:08:01.042Z,99910.30
2018-06-20T13:10:29.685Z,99912.52
2018-06-20T13:12:58.355Z,99908.42
2018-06-20T13:15:26.986Z,99904.34
2018-06-20T13:17:55.626Z,99902.20
2018-06-20T13:20:24.280Z,99898.12
2018-06-20T13:22:52.906Z,99898.48
2018-06-20T13:25:21.510Z,99887.34
2018-06-20T13:27:50.180Z,99892.27
2018-06-20T13:30:18.850Z,99883.42
2018-06-20T13:32:52.614Z,99880.97
2018-06-20T13:35:26.363Z,99875.05
2018-06-20T13:38:00.100Z,99872.67
2018-06-20T13:40:33.906Z,99872.55
2018-06-20T13:43:07.827Z,99867.57
2018-06-20T13:45:41.614Z,99861.97
2018-06-20T13:48:15.355Z,99861.67
2018-06-20T13:50:44.112Z,99858.23
2018-06-20T13:53:12.786Z,99855.59
2018-06-20T13:55:41.719Z,99852.03
2018-06-20T13:58:13.062Z,99849.50
2018-06-20T14:00:41.908Z,99848.16
2018-06-20T14:03:10.542Z,99845.44
2018-06-20T14:05:39.167Z,99839.14
2018-06-20T14:08:07.920Z,99841.14
2018-06-20T14:10:36.561Z,99852.50
2018-06-20T14:13:05.227Z,99838.08
2018-06-20T14:15:33.935Z,99838.99
2018-06-20T14:18:02.562Z,99838.73
2018-06-20T14:20:36.423Z,99838.77
2018-06-20T14:23:05.056Z,99832.63
2018-06-20T14:25:33.662Z,99829.54
2018-06-20T14:28:02.350Z,99831.05
2018-06-20T14:30:36.174Z,99822.70
2018-06-20T14:33:09.935Z,99827.30
2018-06-20T14:35:43.620Z,99832.58
2018-06-20T14:38:17.529Z,99819.38
2018-06-20T14:40:51.355Z,99824.61
2018-06-20T14:43:25.085Z,99811.04
2018-06-20T14:45:58.768Z,99809.15
2018-06-20T14:48:27.391Z,99818.19
2018-06-20T14:50:56.058Z,99811.14
2018-06-20T14:53:24.658Z,99814.67
2018-06-20T14:55:53.308Z,99806.92
2018-06-20T14:58:21.908Z,99800.98
2018-06-20T15:00:50.567Z,99805.75
2018-06-20T15:03:19.190Z,99806.20
2018-06-20T15:05:47.838Z,99798.00
2018-06-20T15:08:16.529Z,99794.81
2018-06-20T15:10:45.199Z,99789.00
2018-06-20T15:13:13.830Z,99791.49
2018-06-20T15:15:42.799Z,99787.44
2018-06-20T15:18:17.078Z,99782.28
2018-06-20T15:20:45.714Z,99781.58
2018-06-20T15:23:14.338Z,99779.09
2018-06-20T15:25:47.107Z,99778.56
2018-06-20T15:28:20.765Z,99781.59
2018-06-20T15:30:54.468Z,99776.35
2018-06-20T15:33:28.225Z,99772.02
2018-06-20T15:36:02.024Z,99755.67
2018-06-20T15:38:30.684Z,99761.20
2018-06-20T15:40:59.337Z,99761.77
2018-06-20T15:43:27.969Z,99757.34
2018-06-20T15:45:56.610Z,99762.11
2018-06-20T15:48:25.238Z,99752.13
2018-06-20T15:50:53.881Z,99758.00
2018-06-20T15:53:22.766Z,99759.56
2018-06-20T15:55:51.396Z,99756.80
2018-06-20T15:58:20.146Z,99752.13
2018-06-20T16:00:49.003Z,99753.72
2018-06-20T16:03:17.631Z,99746.67
2018-06-20T16:05:46.365Z,99748.30
2018-06-20T16:08:15.262Z,99751.39
2018-06-20T16:10:43.953Z,99747.00
2018-06-20T16:13:12.565Z,99750.91
2018-06-20T16:15:41.209Z,99742.83
2018-06-20T16:18:10.002Z,99743.28
2018-06-20T16:20:43.883Z,99740.09
2018-06-20T16:23:17.626Z,99739.08
2018-06-20T16:25:51.426Z,99730.38
2018-06-20T16:28:25.097Z,99734.00
2018-06-20T16:30:53.814Z,99730.26
2018-06-20T16:33:22.466Z,99733.83
2018-06-20T16:35:51.128Z,99731.48
2018-06-20T16:38:19.838Z,99722.79
2018-06-20T16:40:48.505Z,99727.88
2018-06-20T16:43:17.145Z,99730.41
2018-06-20T16:45:46.348Z,99733.32
2018-06-20T16:48:15.060Z,99723.30
2018-06-20T16:50:43.716Z,99724.59
2018-06-20T16:53:12.335Z,99732.09
2018-06-20T16:55:41.039Z,99725.27
2018-06-20T16:58:09.665Z,99736.11
2018-06-20T17:00:38.270Z,99725.04
2018-06-20T17:03:06.956Z,99721.46
2018-06-20T17:05:35.570Z,99724.04
2018-06-20T17:08:04.274Z,99718.63
2018-06-20T17:10:32.894Z,99714.53
2018-06-20T17:13:06.640Z,99719.27
2018-06-20T17:15:40.301Z,99708.80
2018-06-20T17:18:14.215Z,99713.41
2018-06-20T17:20:47.997Z,99708.81
2018-06-20T17:23:21.681Z,99705.39
2018-06-20T17:25:50.361Z,99703.48
2018-06-20T17:28:18.994Z,99699.22
2018-06-20T17:30:47.635Z,99695.98
2018-06-20T17:33:16.264Z,99698.61
2018-06-20T17:35:44.880Z,99695.39
2018-06-20T17:38:13.592Z,99691.65
2018-06-20T17:40:42.210Z,99691.95
2018-06-20T17:43:10.832Z,99693.92
2018-06-20T17:45:39.511Z,99691.73
2018-06-20T17:48:08.253Z,99693.75
2018-06-20T17:50:36.854Z,99691.94
2018-06-20T17:53:05.515Z,99690.03
2018-06-20T17:55:34.203Z,99690.05
2018-06-20T17:58:02.829Z,99689.06
2018-06-20T18:00:31.552Z,99693.89
2018-06-20T18:03:00.159Z,99696.97
2018-06-20T18:07:37.870Z,99692.05
2018-06-20T18:10:11.506Z,99691.51
2018-06-20T18:12:45.172Z,99694.63
2018-06-20T18:15:18.807Z,99686.59
2018-06-20T18:17:47.458Z,99693.41
2018-06-20T18:20:16.107Z,99691.73
2018-06-20T18:22:44.780Z,99690.17
2018-06-20T18:25:13.452Z,99690.29
2018-06-20T18:27:42.087Z,99678.88
2018-06-20T18:30:10.814Z,99675.88
2018-06-20T18:32:39.464Z,99685.52
2018-06-20T18:35:08.090Z,99684.52
2018-06-20T18:37:36.870Z,99686.18
2018-06-20T18:40:07.763Z,99678.48
2018-06-20T18:42:36.649Z,99682.01
2018-06-20T18:45:06.394Z,99682.61
2018-06-20T18:47:40.300Z,99681.92
2018-06-20T18:50:09.520Z,99683.36
2018-06-20T18:52:38.325Z,99681.63
2018-06-20T18:55:07.154Z,99686.38
2018-06-20T18:57:40.893Z,99683.91
2018-06-20T19:00:14.754Z,99679.80
2018-06-20T19:02:48.507Z,99678.02
2018-06-20T19:05:22.304Z,99688.52
2018-06-20T19:07:56.400Z,99681.79
2018-06-20T19:10:25.946Z,99688.92
2018-06-20T19:12:54.598Z,99691.48
2018-06-20T19:15:23.311Z,99687.86
2018-06-20T19:17:52.004Z,99694.92
2018-06-20T19:20:20.700Z,99696.50
2018-06-20T19:22:49.414Z,99691.03
2018-06-20T19:25:18.272Z,99694.85
2018-06-20T19:27:47.278Z,99694.39
2018-06-20T19:30:15.956Z,99694.70
2018-06-20T19:32:44.676Z,99693.05
2018-06-20T19:35:13.487Z,99693.99
2018-06-20T19:37:42.191Z,99697.78
2018-06-20T19:40:17.896Z,99701.00
2018-06-20T19:42:46.690Z,99700.00
2018-06-20T19:45:15.460Z,99709.39
2018-06-20T19:47:44.187Z,99709.23
2018-06-20T19:50:12.948Z,99713.13
2018-06-20T19:52:42.950Z,99709.88
2018-06-20T19:55:12.045Z,99709.11
2018-06-20T19:57:40.766Z,99707.66
2018-06-20T20:00:09.647Z,99697.47
2018-06-20T20:02:38.572Z,99705.77
2018-06-20T20:05:08.641Z,99706.20
2018-06-20T20:07:37.345Z,99701.03
2018-06-20T20:10:06.496Z,99699.10
2018-06-20T20:12:37.131Z,99704.47
2018-06-20T20:17:44.531Z,99697.55
2018-06-20T20:20:18.183Z,99693.92
2018-06-20T20:35:37.010Z,99694.46
2018-06-20T20:38:05.761Z,99691.22
2018-06-20T20:40:34.803Z,99688.81
2018-06-20T20:43:03.807Z,99690.59
2018-06-20T20:45:32.410Z,99691.68
2018-06-20T20:48:01.066Z,99690.59
2018-06-20T20:50:30.132Z,99685.90
2018-06-20T20:52:58.898Z,99687.72
2018-06-20T20:55:27.673Z,99681.70
2018-06-20T20:57:56.495Z,99682.23
2018-06-20T21:00:25.138Z,99679.20
2018-06-20T21:02:54.225Z,99675.06
2018-06-20T21:05:27.152Z,99673.13
2018-06-20T21:07:55.980Z,99673.70
2018-06-20T21:10:25.012Z,99669.83
2018-06-20T21:12:54.605Z,99670.61
2018-06-20T21:15:24.327Z,99669.26
2018-06-20T21:17:53.168Z,99664.82
2018-06-20T21:20:22.683Z,99666.21
2018-06-20T21:22:51.654Z,99666.13
2018-06-20T21:25:20.532Z,99668.02
2018-06-20T21:27:51.559Z,99667.27
2018-06-20T21:30:22.431Z,99668.05
2018-06-20T21:32:51.163Z,99663.00
2018-06-20T21:35:21.329Z,99660.00
2018-06-20T21:37:51.357Z,99667.13
2018-06-20T21:40:20.241Z,99655.36
2018-06-20T21:42:51.019Z,99661.88
2018-06-20T21:45:24.265Z,99656.10
2018-06-20T21:47:58.986Z,99655.26
2018-06-20T21:50:28.511Z,99648.55
2018-06-20T21:52:58.997Z,99651.03
2018-06-20T21:55:30.344Z,99647.87
2018-06-20T21:57:59.725Z,99643.05
2018-06-20T22:00:29.745Z,99637.16
2018-06-20T22:15:49.650Z,99634.20
2018-06-20T22:18:18.368Z,99634.34
2018-06-20T22:20:47.038Z,99627.66
2018-06-20T22:23:16.355Z,99626.44
2018-06-20T22:25:45.074Z,99626.38
2018-06-20T22:28:13.731Z,99629.83
2018-06-20T22:30:42.997Z,99623.48
2018-06-20T22:33:11.618Z,99623.10
2018-06-20T22:35:40.231Z,99624.88
2018-06-20T22:38:08.981Z,99625.20
2018-06-20T22:40:37.621Z,99615.65
2018-06-20T22:43:06.263Z,99610.91
2018-06-20T22:45:34.905Z,99607.55
2018-06-20T22:48:03.564Z,99606.37
2018-06-20T22:50:32.960Z,99612.63
2018-06-20T22:53:01.678Z,99602.84
2018-06-20T22:55:30.334Z,99607.66
2018-06-20T22:57:58.949Z,99605.25
2018-06-20T23:00:27.598Z,99597.62
2018-06-20T23:02:57.814Z,99598.61
2018-06-20T23:05:31.785Z,99593.52
2018-06-20T23:08:00.404Z,99586.38
2018-06-20T23:10:29.021Z,99586.92
2018-06-20T23:12:57.716Z,99583.98
2018-06-20T23:15:26.407Z,99588.19
2018-06-20T23:17:55.054Z,99581.86
2018-06-20T23:20:23.692Z,99582.82
2018-06-20T23:22:52.302Z,99576.69
2018-06-20T23:25:20.923Z,99578.83
2018-06-20T23:27:49.625Z,99573.08
2018-06-20T23:30:18.275Z,99574.37
2018-06-20T23:32:46.888Z,99572.05
2018-06-20T23:35:15.577Z,99567.29
2018-06-20T23:37:44.190Z,99565.60
2018-06-20T23:40:12.814Z,99556.97
2018-06-20T23:42:41.451Z,99563.60
2018-06-20T23:45:10.189Z,99563.59
2018-06-20T23:47:38.895Z,99558.11
2018-06-20T23:50:07.585Z,99555.20
2018-06-20T23:52:36.211Z,99549.53
2018-06-20T23:55:05.095Z,99550.47
2018-06-20T23:57:33.938Z,99548.43
